createdAt,value
2017-10-24T00:00:55.933Z,17.6
2017-10-24T00:02:56.103Z,17.6
2017-10-24T00:04:56.208Z,18.1
2017-10-24T00:06:56.345Z,17.6
2017-10-24T00:08:56.585Z,18.1
2017-10-24T00:10:56.606Z,17.6
2017-10-24T00:12:56.722Z,18.1
2017-10-24T00:14:56.865Z,17.6
2017-10-24T00:16:57.010Z,18.1
2017-10-24T00:18:57.137Z,17.6
2017-10-24T00:20:57.379Z,17.6
2017-10-24T00:22:57.532Z,18.6
2017-10-24T00:24:57.822Z,18.6
2017-10-24T00:26:58.014Z,18.1
2017-10-24T00:28:58.173Z,18.6
2017-10-24T00:30:58.254Z,17.6
2017-10-24T00:32:58.366Z,18.1
2017-10-24T00:34:58.529Z,17.6
2017-10-24T00:36:58.654Z,17.6
2017-10-24T00:38:58.866Z,17.6
2017-10-24T00:40:59.144Z,18.1
2017-10-24T00:42:59.144Z,18.1
2017-10-24T00:44:59.300Z,17.6
2017-10-24T00:46:59.448Z,17.6
2017-10-24T00:48:59.580Z,17.6
2017-10-24T00:50:59.861Z,18.1
2017-10-24T00:52:59.929Z,17.6
2017-10-24T00:55:00.005Z,18.1
2017-10-24T00:57:00.317Z,17.6
2017-10-24T00:59:00.273Z,17.6
2017-10-24T01:01:00.418Z,18.1
2017-10-24T01:03:00.572Z,17.6
2017-10-24T01:05:00.639Z,17
2017-10-24T01:07:00.800Z,17.6
2017-10-24T01:09:00.893Z,17
2017-10-24T01:11:01.022Z,17.6
2017-10-24T01:13:01.193Z,18.1
2017-10-24T01:15:01.381Z,18.1
2017-10-24T01:17:01.980Z,17
2017-10-24T01:19:02.237Z,17.6
2017-10-24T01:21:02.370Z,17.6
2017-10-24T01:23:02.536Z,18.1
2017-10-24T01:25:02.663Z,17.6
2017-10-24T01:27:02.857Z,17.6
2017-10-24T01:29:03.176Z,17.6
2017-10-24T01:31:03.129Z,17.6
2017-10-24T01:33:03.723Z,17.6
2017-10-24T01:35:03.591Z,17.6
2017-10-24T01:37:03.630Z,17.6
2017-10-24T01:39:03.816Z,17.6
2017-10-24T01:41:04.114Z,17
2017-10-24T01:43:04.131Z,17.6
2017-10-24T01:45:04.216Z,17.6
2017-10-24T01:47:04.381Z,18.1
2017-10-24T01:49:04.700Z,17.6
2017-10-24T01:51:04.646Z,17.6
2017-10-24T01:53:04.803Z,17.6
2017-10-24T01:55:05.051Z,17.6
2017-10-24T01:57:05.096Z,17.6
2017-10-24T01:59:05.465Z,17
2017-10-24T02:01:05.516Z,17.6
2017-10-24T02:03:05.674Z,17.6
2017-10-24T02:05:05.811Z,17.6
2017-10-24T02:07:05.990Z,17.6
2017-10-24T02:09:06.110Z,17.6
2017-10-24T02:11:06.203Z,17.6
2017-10-24T02:13:06.655Z,17.6
2017-10-24T02:15:06.467Z,17
2017-10-24T02:17:06.585Z,17.6
2017-10-24T02:19:06.712Z,17.6
2017-10-24T02:21:06.848Z,17.6
2017-10-24T02:23:06.979Z,17
2017-10-24T02:25:07.136Z,17
2017-10-24T02:27:07.332Z,17
2017-10-24T02:29:07.420Z,17.6
2017-10-24T02:31:07.502Z,17.6
2017-10-24T02:33:08.042Z,17.6
2017-10-24T02:35:07.954Z,17.6
2017-10-24T02:37:08.044Z,17.6
2017-10-24T02:39:08.148Z,18.1
2017-10-24T02:41:08.303Z,17.6
2017-10-24T02:43:08.439Z,18.6
2017-10-24T02:45:08.566Z,18.1
2017-10-24T02:47:08.678Z,17.6
2017-10-24T02:49:08.869Z,17.6
2017-10-24T02:51:08.902Z,17.6
2017-10-24T02:53:08.999Z,17.6
2017-10-24T02:55:09.457Z,17.6
2017-10-24T02:57:09.283Z,18.1
2017-10-24T02:59:09.556Z,17.6
2017-10-24T03:01:09.682Z,18.6
2017-10-24T03:03:09.792Z,18.6
2017-10-24T03:05:09.933Z,18.1
2017-10-24T03:07:10.199Z,17.6
2017-10-24T03:09:10.314Z,17.6
2017-10-24T03:11:10.452Z,18.1
2017-10-24T03:13:10.607Z,18.1
2017-10-24T03:15:10.721Z,18.6
2017-10-24T03:17:10.803Z,17.6
2017-10-24T03:19:10.909Z,17.6
2017-10-24T03:21:11.128Z,18.1
2017-10-24T03:23:11.247Z,18.6
2017-10-24T03:25:11.322Z,17.6
2017-10-24T03:27:11.402Z,18.1
2017-10-24T03:29:11.551Z,18.1
2017-10-24T03:31:11.682Z,18.1
2017-10-24T03:33:11.773Z,18.6
2017-10-24T03:35:11.930Z,18.1
2017-10-24T03:37:12.144Z,18.6
2017-10-24T03:39:12.243Z,17.6
2017-10-24T03:41:12.365Z,18.1
2017-10-24T03:43:12.472Z,17.6
2017-10-24T03:45:12.631Z,17.6
2017-10-24T03:47:12.794Z,17.6
2017-10-24T03:49:12.892Z,17.6
2017-10-24T03:51:13.021Z,17.6
2017-10-24T03:53:13.132Z,17.6
2017-10-24T03:55:13.278Z,18.1
2017-10-24T03:57:13.378Z,18.1
2017-10-24T03:59:15.151Z,17.6
2017-10-24T04:01:13.633Z,17.6
2017-10-24T04:03:13.765Z,17.6
2017-10-24T04:05:13.975Z,18.6
2017-10-24T04:07:14.082Z,18.1
2017-10-24T04:09:14.218Z,18.6
2017-10-24T04:11:14.352Z,17.6
2017-10-24T04:13:14.632Z,17.6
2017-10-24T04:15:14.594Z,17.6
2017-10-24T04:17:14.758Z,18.1
2017-10-24T04:19:15.172Z,17.6
2017-10-24T04:21:15.333Z,18.1
2017-10-24T04:23:15.431Z,17.6
2017-10-24T04:25:15.734Z,18.6
2017-10-24T04:27:15.849Z,17.6
2017-10-24T04:29:16.064Z,18.6
2017-10-24T04:31:16.185Z,17.6
2017-10-24T04:33:16.525Z,18.6
2017-10-24T04:35:16.609Z,18.6
2017-10-24T04:37:16.704Z,17.6
2017-10-24T04:39:16.893Z,17.6
2017-10-24T04:41:16.993Z,17.6
2017-10-24T04:43:17.259Z,18.1
2017-10-24T04:45:17.318Z,17.6
2017-10-24T04:47:17.447Z,18.1
2017-10-24T04:49:17.610Z,17.6
2017-10-24T04:51:17.789Z,17.6
2017-10-24T04:53:18.018Z,17.6
2017-10-24T04:55:18.148Z,18.1
2017-10-24T04:57:18.264Z,17.6
2017-10-24T04:59:18.572Z,18.6
2017-10-24T05:01:18.660Z,18.1
2017-10-24T05:03:18.791Z,18.1
2017-10-24T05:05:18.981Z,18.1
2017-10-24T05:07:19.076Z,17.6
2017-10-24T05:09:19.214Z,18.1
2017-10-24T05:11:19.690Z,18.6
2017-10-24T05:13:19.495Z,18.1
2017-10-24T05:15:19.661Z,18.1
2017-10-24T05:17:20.115Z,18.1
2017-10-24T05:19:19.899Z,18.1
2017-10-24T05:21:20.063Z,17.6
2017-10-24T05:23:20.294Z,17.6
2017-10-24T05:25:20.444Z,17.6
2017-10-24T05:27:20.464Z,17.6
2017-10-24T05:29:20.581Z,17.6
2017-10-24T05:31:20.689Z,18.1
2017-10-24T05:33:20.827Z,17.6
2017-10-24T05:35:20.940Z,17.6
2017-10-24T05:37:21.062Z,18.1
2017-10-24T05:39:21.181Z,18.6
2017-10-24T05:41:21.292Z,17.6
2017-10-24T05:43:21.497Z,17.6
2017-10-24T05:45:21.537Z,17.6
2017-10-24T05:47:21.635Z,17.6
2017-10-24T05:49:21.834Z,17.6
2017-10-24T05:51:21.998Z,17.6
2017-10-24T05:53:22.099Z,18.6
2017-10-24T05:55:22.209Z,18.1
2017-10-24T05:57:22.417Z,17.6
2017-10-24T05:59:22.619Z,17.6
2017-10-24T06:01:22.680Z,17.6
2017-10-24T06:03:22.859Z,17.6
2017-10-24T06:05:22.923Z,17.6
2017-10-24T06:07:23.052Z,17.6
2017-10-24T06:09:23.212Z,18.1
2017-10-24T06:11:23.385Z,18.6
2017-10-24T06:13:23.490Z,18.1
2017-10-24T06:15:23.630Z,18.1
2017-10-24T06:17:23.789Z,17.6
2017-10-24T06:19:23.886Z,17.6
2017-10-24T06:21:23.982Z,17.6
2017-10-24T06:23:24.149Z,17.6
2017-10-24T06:25:24.241Z,17
2017-10-24T06:27:24.334Z,17.6
2017-10-24T06:29:24.473Z,17.6
2017-10-24T06:31:24.631Z,17.6
2017-10-24T06:33:24.749Z,17.6
2017-10-24T06:35:24.884Z,17.6
2017-10-24T06:37:25.133Z,17
2017-10-24T06:39:25.223Z,17.6
2017-10-24T06:41:25.364Z,17.6
2017-10-24T06:43:25.611Z,17.6
2017-10-24T06:45:25.732Z,17.6
2017-10-24T06:47:25.834Z,17.6
2017-10-24T06:49:26.051Z,18.1
2017-10-24T06:51:26.237Z,17.6
2017-10-24T06:53:26.352Z,17.6
2017-10-24T06:55:26.498Z,17.6
2017-10-24T06:57:26.679Z,17
2017-10-24T06:59:26.740Z,17
2017-10-24T07:01:26.862Z,17.6
2017-10-24T07:03:26.971Z,18.6
2017-10-24T07:05:27.135Z,18.1
2017-10-24T07:07:27.290Z,17.6
2017-10-24T07:09:27.412Z,17.6
2017-10-24T07:11:27.527Z,17
2017-10-24T07:13:27.679Z,17.6
2017-10-24T07:15:27.759Z,18.1
2017-10-24T07:17:27.856Z,18.6
2017-10-24T07:19:28.013Z,18.1
2017-10-24T07:21:28.148Z,17.6
2017-10-24T07:23:28.264Z,18.1
2017-10-24T07:25:28.412Z,17.6
2017-10-24T07:27:28.476Z,18.1
2017-10-24T07:29:28.624Z,17.6
2017-10-24T07:31:28.790Z,18.6
2017-10-24T07:33:28.947Z,18.6
2017-10-24T07:35:29.157Z,18.6
2017-10-24T07:37:29.265Z,18.1
2017-10-24T07:39:29.482Z,18.1
2017-10-24T07:41:29.610Z,18.6
2017-10-24T07:43:29.661Z,19.200000000000003
2017-10-24T07:45:29.818Z,18.6
2017-10-24T07:47:29.985Z,19.200000000000003
2017-10-24T07:49:30.142Z,19.200000000000003
2017-10-24T07:51:30.177Z,19.200000000000003
2017-10-24T07:53:30.335Z,19.700000000000003
2017-10-24T07:55:30.426Z,19.200000000000003
2017-10-24T07:57:30.609Z,19.700000000000003
2017-10-24T07:59:30.661Z,19.200000000000003
2017-10-24T08:01:30.812Z,19.700000000000003
2017-10-24T08:03:30.955Z,19.700000000000003
2017-10-24T08:05:31.067Z,19.200000000000003
2017-10-24T08:07:31.196Z,19.700000000000003
2017-10-24T08:09:31.614Z,20.200000000000003
2017-10-24T08:11:31.690Z,19.700000000000003
2017-10-24T08:13:31.734Z,19.700000000000003
2017-10-24T08:15:31.909Z,19.700000000000003
2017-10-24T08:17:31.974Z,20.200000000000003
2017-10-24T08:19:32.158Z,19.700000000000003
2017-10-24T08:21:32.255Z,20.200000000000003
2017-10-24T08:23:32.369Z,20.200000000000003
2017-10-24T08:25:32.480Z,19.700000000000003
2017-10-24T08:27:32.600Z,20.799999999999997
2017-10-24T08:29:32.714Z,19.700000000000003
2017-10-24T08:31:32.885Z,20.799999999999997
2017-10-24T08:33:33.009Z,20.200000000000003
2017-10-24T08:35:33.113Z,20.200000000000003
2017-10-24T08:37:33.222Z,20.200000000000003
2017-10-24T08:39:33.408Z,20.799999999999997
2017-10-24T08:41:33.503Z,20.799999999999997
2017-10-24T08:43:33.649Z,20.799999999999997
2017-10-24T08:45:38.960Z,20.799999999999997
2017-10-24T08:47:33.987Z,20.200000000000003
2017-10-24T08:49:34.072Z,20.799999999999997
2017-10-24T08:51:34.231Z,20.799999999999997
2017-10-24T08:53:34.492Z,20.799999999999997
2017-10-24T08:55:39.632Z,20.799999999999997
2017-10-24T08:57:34.783Z,20.799999999999997
2017-10-24T08:59:34.840Z,20.799999999999997
2017-10-24T09:01:34.990Z,21.299999999999997
2017-10-24T09:03:35.083Z,20.799999999999997
2017-10-24T09:05:35.427Z,20.799999999999997
2017-10-24T09:07:35.390Z,20.799999999999997
2017-10-24T09:09:35.707Z,21.299999999999997
2017-10-24T09:11:35.698Z,21.299999999999997
2017-10-24T09:13:35.796Z,20.799999999999997
2017-10-24T09:15:35.923Z,21.299999999999997
2017-10-24T09:17:36.291Z,21.299999999999997
2017-10-24T09:19:36.409Z,21.299999999999997
2017-10-24T09:21:36.545Z,20.799999999999997
2017-10-24T09:23:36.713Z,21.9
2017-10-24T09:25:36.937Z,21.9
2017-10-24T09:27:37.055Z,21.299999999999997
2017-10-24T09:29:37.129Z,21.299999999999997
2017-10-24T09:31:37.283Z,21.9
2017-10-24T09:33:37.466Z,20.799999999999997
2017-10-24T09:35:37.563Z,21.299999999999997
2017-10-24T09:37:37.702Z,21.299999999999997
2017-10-24T09:39:37.951Z,21.299999999999997
2017-10-24T09:41:38.111Z,21.9
2017-10-24T09:43:38.373Z,21.9
2017-10-24T09:45:38.375Z,21.9
2017-10-24T09:47:38.491Z,21.9
2017-10-24T09:49:38.658Z,21.9
2017-10-24T09:51:38.782Z,21.299999999999997
2017-10-24T09:53:38.909Z,21.299999999999997
2017-10-24T09:55:39.243Z,21.9
2017-10-24T09:57:39.330Z,21.9
2017-10-24T09:59:39.836Z,21.9
2017-10-24T10:01:39.603Z,21.9
2017-10-24T10:03:39.729Z,21.9
2017-10-24T10:05:39.814Z,21.9
2017-10-24T10:07:39.949Z,21.299999999999997
2017-10-24T10:09:40.095Z,21.299999999999997
2017-10-24T10:11:40.241Z,21.299999999999997
2017-10-24T10:13:40.305Z,21.9
2017-10-24T10:15:40.475Z,21.9
2017-10-24T10:17:40.674Z,21.9
2017-10-24T10:19:40.783Z,21.9
2017-10-24T10:21:40.995Z,22.4
2017-10-24T10:23:41.291Z,21.9
2017-10-24T10:25:41.281Z,21.9
2017-10-24T10:27:41.438Z,21.9
2017-10-24T10:29:41.578Z,22.9
2017-10-24T10:31:41.715Z,22.4
2017-10-24T10:33:41.785Z,22.9
2017-10-24T10:35:41.917Z,22.9
2017-10-24T10:37:42.010Z,22.9
2017-10-24T10:39:42.218Z,22.4
2017-10-24T10:41:42.317Z,21.9
2017-10-24T10:43:42.410Z,22.4
2017-10-24T10:45:42.511Z,22.9
2017-10-24T10:47:42.688Z,22.9
2017-10-24T10:49:42.931Z,22.9
2017-10-24T10:51:43.144Z,21.9
2017-10-24T10:53:43.177Z,21.9
2017-10-24T10:55:43.268Z,22.9
2017-10-24T10:57:43.392Z,22.9
2017-10-24T10:59:43.786Z,21.9
2017-10-24T11:01:43.872Z,22.4
2017-10-24T11:03:43.975Z,21.9
2017-10-24T11:05:44.075Z,22.4
2017-10-24T11:07:44.394Z,22.9
2017-10-24T11:09:44.345Z,22.9
2017-10-24T11:11:44.518Z,22.9
2017-10-24T11:13:44.740Z,22.9
2017-10-24T11:15:44.851Z,22.9
2017-10-24T11:17:44.969Z,22.9
2017-10-24T11:19:45.118Z,22.9
2017-10-24T11:21:45.200Z,22.9
2017-10-24T11:23:45.373Z,22.9
2017-10-24T11:25:45.465Z,22.9
2017-10-24T11:27:45.631Z,22.4
2017-10-24T11:29:45.719Z,22.9
2017-10-24T11:31:45.851Z,22.9
2017-10-24T11:33:46.151Z,22.9
2017-10-24T11:35:46.141Z,23.5
2017-10-24T11:37:47.090Z,23.5
2017-10-24T11:39:46.393Z,23.5
2017-10-24T11:41:46.591Z,22.9
2017-10-24T11:43:46.691Z,23.5
2017-10-24T11:45:46.855Z,23.5
2017-10-24T11:47:47.060Z,22.9
2017-10-24T11:49:47.048Z,23.5
2017-10-24T11:51:47.212Z,22.9
2017-10-24T11:53:47.376Z,23.5
2017-10-24T11:55:47.563Z,22.9
2017-10-24T11:57:47.650Z,22.9
2017-10-24T11:59:47.800Z,23.5
2017-10-24T12:01:47.951Z,22.9
2017-10-24T12:03:48.081Z,23.5
2017-10-24T12:05:48.334Z,22.9
2017-10-24T12:07:48.445Z,24
2017-10-24T12:09:48.519Z,22.9
2017-10-24T12:11:48.739Z,23.5
2017-10-24T12:13:48.872Z,24
2017-10-24T12:15:49.007Z,23.5
2017-10-24T12:17:49.148Z,22.9
2017-10-24T12:19:49.306Z,23.5
2017-10-24T12:21:49.580Z,23.5
2017-10-24T12:23:49.638Z,23.5
2017-10-24T12:25:49.770Z,23.5
2017-10-24T12:27:49.900Z,24
2017-10-24T12:29:50.008Z,24
2017-10-24T12:31:50.326Z,23.5
2017-10-24T12:33:50.309Z,24
2017-10-24T12:35:50.393Z,24
2017-10-24T12:37:50.509Z,23.5
2017-10-24T12:39:50.653Z,24
2017-10-24T12:41:50.877Z,24
2017-10-24T12:43:50.979Z,23.5
2017-10-24T12:45:51.136Z,24
2017-10-24T12:47:51.242Z,24
2017-10-24T12:49:51.379Z,24
2017-10-24T12:51:51.523Z,23.5
2017-10-24T12:53:51.628Z,23.5
2017-10-24T12:55:51.735Z,24
2017-10-24T12:57:51.854Z,23.5
2017-10-24T12:59:52.006Z,24
2017-10-24T13:01:52.104Z,23.5
2017-10-24T13:03:52.264Z,24
2017-10-24T13:05:52.418Z,23.5
2017-10-24T13:07:52.526Z,23.5
2017-10-24T13:09:52.634Z,24
2017-10-24T13:11:52.807Z,24
2017-10-24T13:13:53.013Z,24
2017-10-24T13:15:53.028Z,24
2017-10-24T13:17:53.157Z,24
2017-10-24T13:19:53.327Z,24
2017-10-24T13:21:53.542Z,24.5
2017-10-24T13:23:53.724Z,23.5
2017-10-24T13:25:53.813Z,24
2017-10-24T13:27:54.189Z,24
2017-10-24T13:29:54.357Z,24
2017-10-24T13:31:54.481Z,23.5
2017-10-24T13:33:54.590Z,24
2017-10-24T13:35:54.737Z,23.5
2017-10-24T13:37:54.874Z,22.9
2017-10-24T13:39:55.017Z,23.5
2017-10-24T13:41:55.207Z,23.5
2017-10-24T13:43:55.333Z,23.5
2017-10-24T13:45:55.395Z,24
2017-10-24T13:47:55.524Z,24
2017-10-24T13:49:55.737Z,23.5
2017-10-24T13:51:55.884Z,23.5
2017-10-24T13:53:56.041Z,22.9
2017-10-24T13:55:56.352Z,22.9
2017-10-24T13:57:56.309Z,24
2017-10-24T13:59:56.479Z,23.5
2017-10-24T14:01:56.615Z,23.5
2017-10-24T14:03:56.728Z,22.9
2017-10-24T14:05:57.080Z,22.9
2017-10-24T14:07:56.983Z,23.5
2017-10-24T14:09:57.092Z,23.5
2017-10-24T14:11:57.238Z,23.5
2017-10-24T14:13:57.684Z,22.9
2017-10-24T14:15:57.531Z,22.9
2017-10-24T14:17:57.694Z,22.9
2017-10-24T14:19:57.787Z,22.9
2017-10-24T14:21:57.954Z,22.9
2017-10-24T14:23:58.235Z,22.4
2017-10-24T14:25:58.218Z,22.4
2017-10-24T14:27:58.356Z,22.9
2017-10-24T14:29:58.523Z,23.5
2017-10-24T14:31:58.668Z,22.9
2017-10-24T14:33:59.020Z,22.9
2017-10-24T14:35:59.059Z,22.9
2017-10-24T14:37:59.110Z,22.9
2017-10-24T14:39:59.248Z,23.5
2017-10-24T14:41:59.364Z,22.9
2017-10-24T14:43:59.479Z,22.9
2017-10-24T14:45:59.615Z,23.5
2017-10-24T14:47:59.798Z,22.9
2017-10-24T14:49:59.936Z,23.5
2017-10-24T14:52:00.072Z,23.5
2017-10-24T14:54:00.334Z,22.9
2017-10-24T14:56:00.298Z,22.9
2017-10-24T14:58:00.441Z,22.9
2017-10-24T15:00:00.684Z,22.9
2017-10-24T15:02:00.793Z,22.9
2017-10-24T15:04:00.920Z,22.9
2017-10-24T15:06:01.068Z,23.5
2017-10-24T15:08:01.186Z,23.5
2017-10-24T15:10:01.330Z,24
2017-10-24T15:12:01.426Z,23.5
2017-10-24T15:14:02.004Z,23.5
2017-10-24T15:16:02.015Z,24
2017-10-24T15:18:02.315Z,23.5
2017-10-24T15:20:02.626Z,24
2017-10-24T15:22:02.616Z,22.9
2017-10-24T15:24:02.794Z,23.5
2017-10-24T15:26:02.951Z,23.5
2017-10-24T15:28:03.024Z,22.9
2017-10-24T15:30:03.167Z,23.5
2017-10-24T15:32:03.269Z,22.9
2017-10-24T15:34:03.380Z,23.5
2017-10-24T15:36:03.549Z,23.5
2017-10-24T15:38:03.810Z,23.5
2017-10-24T15:40:03.781Z,22.9
2017-10-24T15:42:03.908Z,22.9
2017-10-24T15:44:04.077Z,23.5
2017-10-24T15:46:04.206Z,22.9
2017-10-24T15:48:04.311Z,23.5
2017-10-24T15:50:04.424Z,22.9
2017-10-24T15:52:04.594Z,23.5
2017-10-24T15:54:04.690Z,23.5
2017-10-24T15:56:04.796Z,23.5
2017-10-24T15:58:04.993Z,22.9
2017-10-24T16:00:05.084Z,22.9
2017-10-24T16:02:05.288Z,22.9
2017-10-24T16:04:05.421Z,22.9
2017-10-24T16:06:05.463Z,22.9
2017-10-24T16:08:05.704Z,22.9
2017-10-24T16:10:05.792Z,22.9
2017-10-24T16:12:05.867Z,22.9
2017-10-24T16:14:06.088Z,22.9
2017-10-24T16:16:06.190Z,22.9
2017-10-24T16:18:06.326Z,22.9
2017-10-24T16:20:06.464Z,22.9
2017-10-24T16:22:06.589Z,22.9
2017-10-24T16:24:06.679Z,22.9
2017-10-24T16:26:06.932Z,22.9
2017-10-24T16:28:06.937Z,22.4
2017-10-24T16:30:07.171Z,22.9
2017-10-24T16:32:07.217Z,22.9
2017-10-24T16:34:07.335Z,22.4
2017-10-24T16:36:07.463Z,22.9
2017-10-24T16:38:07.579Z,22.4
2017-10-24T16:40:07.725Z,22.4
2017-10-24T16:42:07.812Z,22.4
2017-10-24T16:44:07.953Z,22.9
2017-10-24T16:46:08.112Z,22.4
2017-10-24T16:48:08.401Z,22.9
2017-10-24T16:50:08.538Z,22.4
2017-10-24T16:52:08.714Z,21.9
2017-10-24T16:54:08.788Z,21.9
2017-10-24T16:56:08.915Z,21.9
2017-10-24T16:58:09.061Z,22.4
2017-10-24T17:00:09.186Z,21.9
2017-10-24T17:02:09.372Z,21.9
2017-10-24T17:04:09.475Z,22.4
2017-10-24T17:06:09.647Z,21.9
2017-10-24T17:08:09.916Z,21.9
2017-10-24T17:10:09.923Z,22.9
2017-10-24T17:12:10.015Z,21.9
2017-10-24T17:14:10.360Z,21.9
2017-10-24T17:16:10.591Z,21.9
2017-10-24T17:18:10.632Z,21.9
2017-10-24T17:20:10.780Z,21.299999999999997
2017-10-24T17:22:10.884Z,21.299999999999997
2017-10-24T17:24:10.996Z,21.299999999999997
2017-10-24T17:26:11.168Z,21.9
2017-10-24T17:28:11.252Z,21.299999999999997
2017-10-24T17:30:11.383Z,21.299999999999997
2017-10-24T17:32:11.511Z,20.799999999999997
2017-10-24T17:34:11.641Z,21.299999999999997
2017-10-24T17:36:11.806Z,20.799999999999997
2017-10-24T17:38:11.919Z,21.299999999999997
2017-10-24T17:40:12.031Z,21.299999999999997
2017-10-24T17:42:12.234Z,21.9
2017-10-24T17:44:12.449Z,21.9
2017-10-24T17:46:12.528Z,20.799999999999997
2017-10-24T17:48:12.677Z,20.799999999999997
2017-10-24T17:50:12.897Z,21.299999999999997
2017-10-24T17:52:12.969Z,20.799999999999997
2017-10-24T17:54:13.147Z,20.799999999999997
2017-10-24T17:56:13.217Z,20.799999999999997
2017-10-24T17:58:13.491Z,20.799999999999997
2017-10-24T18:00:13.576Z,20.799999999999997
2017-10-24T18:02:13.744Z,21.299999999999997
2017-10-24T18:04:13.917Z,20.799999999999997
2017-10-24T18:06:14.016Z,21.299999999999997
2017-10-24T18:08:14.409Z,20.799999999999997
2017-10-24T18:10:14.278Z,20.799999999999997
2017-10-24T18:12:14.398Z,20.799999999999997
2017-10-24T18:14:14.570Z,20.799999999999997
2017-10-24T18:16:14.670Z,20.799999999999997
2017-10-24T18:18:14.803Z,20.799999999999997
2017-10-24T18:20:14.934Z,20.799999999999997
2017-10-24T18:22:15.083Z,20.799999999999997
2017-10-24T18:24:15.238Z,20.799999999999997
2017-10-24T18:26:15.425Z,21.9
2017-10-24T18:28:15.641Z,20.799999999999997
2017-10-24T18:30:15.637Z,20.799999999999997
2017-10-24T18:32:15.809Z,20.799999999999997
2017-10-24T18:34:15.932Z,20.799999999999997
2017-10-24T18:36:16.053Z,20.799999999999997
2017-10-24T18:38:16.342Z,20.799999999999997
2017-10-24T18:40:16.629Z,20.799999999999997
2017-10-24T18:42:16.727Z,20.799999999999997
2017-10-24T18:44:16.920Z,20.799999999999997
2017-10-24T18:46:17.427Z,20.799999999999997
2017-10-24T18:48:17.245Z,20.799999999999997
2017-10-24T18:50:17.380Z,20.799999999999997
2017-10-24T18:52:17.656Z,20.799999999999997
2017-10-24T18:54:17.660Z,20.799999999999997
2017-10-24T18:56:17.801Z,20.799999999999997
2017-10-24T18:58:17.932Z,20.799999999999997
2017-10-24T19:00:18.078Z,20.799999999999997
2017-10-24T19:02:18.247Z,20.799999999999997
2017-10-24T19:04:18.377Z,20.799999999999997
2017-10-24T19:06:18.521Z,19.700000000000003
2017-10-24T19:08:18.811Z,20.799999999999997
2017-10-24T19:10:18.829Z,20.799999999999997
2017-10-24T19:12:19.141Z,20.799999999999997
2017-10-24T19:14:19.202Z,20.799999999999997
2017-10-24T19:16:19.307Z,20.799999999999997
2017-10-24T19:18:19.449Z,20.200000000000003
2017-10-24T19:20:19.619Z,20.799999999999997
2017-10-24T19:22:19.720Z,20.200000000000003
2017-10-24T19:24:19.820Z,20.799999999999997
2017-10-24T19:26:20.172Z,20.799999999999997
2017-10-24T19:28:20.319Z,20.200000000000003
2017-10-24T19:30:20.303Z,20.799999999999997
2017-10-24T19:32:20.414Z,20.799999999999997
2017-10-24T19:34:20.567Z,20.799999999999997
2017-10-24T19:36:20.727Z,19.700000000000003
2017-10-24T19:38:20.845Z,20.799999999999997
2017-10-24T19:40:20.944Z,19.700000000000003
2017-10-24T19:42:21.080Z,20.200000000000003
2017-10-24T19:44:21.240Z,20.799999999999997
2017-10-24T19:46:21.319Z,20.799999999999997
2017-10-24T19:48:21.530Z,19.700000000000003
2017-10-24T19:50:21.607Z,20.799999999999997
2017-10-24T19:52:22.033Z,19.700000000000003
2017-10-24T19:54:22.042Z,20.799999999999997
2017-10-24T19:56:22.066Z,19.700000000000003
2017-10-24T19:58:22.167Z,19.700000000000003
2017-10-24T20:00:22.328Z,19.700000000000003
2017-10-24T20:02:22.462Z,19.700000000000003
2017-10-24T20:04:22.606Z,19.700000000000003
2017-10-24T20:06:22.754Z,19.700000000000003
2017-10-24T20:08:22.855Z,19.700000000000003
2017-10-24T20:10:22.939Z,20.200000000000003
2017-10-24T20:12:23.109Z,19.700000000000003
2017-10-24T20:14:23.185Z,19.700000000000003
2017-10-24T20:16:23.350Z,20.200000000000003
2017-10-24T20:18:23.447Z,19.700000000000003
2017-10-24T20:20:23.718Z,19.700000000000003
2017-10-24T20:22:23.882Z,19.700000000000003
2017-10-24T20:24:23.999Z,20.200000000000003
2017-10-24T20:26:24.208Z,19.700000000000003
2017-10-24T20:28:24.321Z,19.700000000000003
2017-10-24T20:30:24.432Z,19.700000000000003
2017-10-24T20:32:24.680Z,19.700000000000003
2017-10-24T20:34:24.672Z,19.700000000000003
2017-10-24T20:36:24.871Z,19.700000000000003
2017-10-24T20:38:25.084Z,19.700000000000003
2017-10-24T20:40:25.155Z,19.700000000000003
2017-10-24T20:42:25.342Z,19.200000000000003
2017-10-24T20:44:25.771Z,19.700000000000003
2017-10-24T20:46:25.645Z,19.700000000000003
2017-10-24T20:48:25.694Z,19.700000000000003
2017-10-24T20:50:25.962Z,19.700000000000003
2017-10-24T20:52:25.962Z,19.200000000000003
2017-10-24T20:54:26.104Z,19.700000000000003
2017-10-24T20:56:26.266Z,19.700000000000003
2017-10-24T20:58:26.386Z,19.700000000000003
2017-10-24T21:00:26.501Z,19.200000000000003
2017-10-24T21:02:26.652Z,19.700000000000003
2017-10-24T21:04:26.994Z,19.700000000000003
2017-10-24T21:06:26.946Z,19.700000000000003
2017-10-24T21:08:27.112Z,19.700000000000003
2017-10-24T21:10:27.317Z,20.799999999999997
2017-10-24T21:12:27.443Z,19.700000000000003
2017-10-24T21:14:27.553Z,19.700000000000003
2017-10-24T21:16:27.696Z,19.700000000000003
2017-10-24T21:18:27.805Z,19.700000000000003
2017-10-24T21:20:27.908Z,19.700000000000003
2017-10-24T21:22:28.125Z,19.700000000000003
2017-10-24T21:24:28.157Z,19.200000000000003
2017-10-24T21:26:28.276Z,19.200000000000003
2017-10-24T21:28:28.428Z,19.200000000000003
2017-10-24T21:30:28.492Z,19.700000000000003
2017-10-24T21:32:28.663Z,19.200000000000003
2017-10-24T21:34:28.818Z,19.700000000000003
2017-10-24T21:36:28.995Z,19.700000000000003
2017-10-24T21:38:29.139Z,19.200000000000003
2017-10-24T21:40:29.211Z,19.200000000000003
2017-10-24T21:42:29.350Z,19.200000000000003
2017-10-24T21:44:29.485Z,19.700000000000003
2017-10-24T21:46:29.576Z,19.200000000000003
2017-10-24T21:48:29.694Z,19.700000000000003
2017-10-24T21:50:29.793Z,19.200000000000003
2017-10-24T21:52:29.954Z,19.700000000000003
2017-10-24T21:54:30.153Z,19.200000000000003
2017-10-24T21:56:30.275Z,18.6
2017-10-24T21:58:30.345Z,19.200000000000003
2017-10-24T22:00:30.509Z,19.200000000000003
2017-10-24T22:02:30.665Z,18.6
2017-10-24T22:04:30.770Z,19.700000000000003
2017-10-24T22:06:30.894Z,19.700000000000003
2017-10-24T22:08:31.193Z,19.200000000000003
2017-10-24T22:10:31.170Z,19.700000000000003
2017-10-24T22:12:31.319Z,19.700000000000003
2017-10-24T22:14:31.673Z,19.700000000000003
2017-10-24T22:16:31.709Z,18.6
2017-10-24T22:18:31.821Z,19.700000000000003
2017-10-24T22:20:31.982Z,19.700000000000003
2017-10-24T22:22:32.079Z,19.200000000000003
2017-10-24T22:24:32.204Z,19.700000000000003
2017-10-24T22:26:32.359Z,19.200000000000003
2017-10-24T22:28:32.485Z,19.200000000000003
2017-10-24T22:30:32.591Z,19.200000000000003
2017-10-24T22:32:32.794Z,19.200000000000003
2017-10-24T22:34:33.049Z,19.200000000000003
2017-10-24T22:36:33.085Z,19.700000000000003
2017-10-24T22:38:33.225Z,19.200000000000003
2017-10-24T22:40:33.450Z,18.6
2017-10-24T22:42:33.489Z,19.200000000000003
2017-10-24T22:44:33.607Z,18.6
2017-10-24T22:46:33.708Z,19.200000000000003
2017-10-24T22:48:33.909Z,19.200000000000003
2017-10-24T22:50:33.974Z,19.700000000000003
2017-10-24T22:52:34.132Z,19.200000000000003
2017-10-24T22:54:34.252Z,18.6
2017-10-24T22:56:34.568Z,19.200000000000003
2017-10-24T22:58:34.719Z,19.200000000000003
2017-10-24T23:00:34.729Z,19.200000000000003
2017-10-24T23:02:34.940Z,18.6
2017-10-24T23:04:35.103Z,19.200000000000003
2017-10-24T23:06:35.135Z,18.6
2017-10-24T23:08:35.314Z,18.6
2017-10-24T23:10:35.395Z,19.200000000000003
2017-10-24T23:12:35.507Z,18.6
2017-10-24T23:14:35.707Z,18.6